Flight Track Log - Related Links

Times and Time Zones

All times are in EDT time to prevent confusion due to time zone crossing. See the N244A flight status page for this flight to view local times or setup timezone preferences in your user account.

Time Position Orientation Groundspeed Altitude Reporting Facility
EDT Latitude Longitude Course Direction KTS MPH feet Rate Location/Type
Mon 01:38:30 PM 38.7808 -97.6461 154° Southeast 184 212 2,000  Level Kansas City Center
Mon 01:39:33 PM 38.7550 -97.6922 234° Southwest 226 260 4,300 2,592 Climbing Kansas City Center
Mon 01:40:35 PM 38.8036 -97.7553 315° West 256 295 7,400 2,468 Climbing Kansas City Center
Mon 01:41:37 PM 38.7917 -97.8428 260° West 274 315 9,400 1,935 Climbing Kansas City Center
Mon 01:42:39 PM 38.7592 -97.9447 248° West 307 353 11,400 1,984 Climbing Kansas City Center
Mon 01:43:41 PM 38.7214 -98.0547 246° West 334 384 13,500 2,177 Climbing Kansas City Center
Mon 01:44:43 PM 38.6833 -98.1969 251° West 352 405 15,900 2,129 Climbing Kansas City Center
Mon 01:45:45 PM 38.6494 -98.3219 251° West 369 425 17,900 1,742 Climbing Kansas City Center
Mon 01:46:47 PM 38.6119 -98.4450 249° West 373 429 19,500 1,500 Climbing Kansas City Center
Mon 01:47:49 PM 38.5742 -98.5758 250° West 390 449 21,000 1,500 Climbing Kansas City Center
Mon 01:48:51 PM 38.5358 -98.7081 250° West 398 458 22,600 1,355 Climbing Kansas City Center
Mon 01:49:53 PM 38.4886 -98.8703 250° West 407 468 23,800 1,065 Climbing Kansas City Center
Mon 01:50:55 PM 38.4464 -99.0081 249° West 414 476 24,800 871 Climbing Kansas City Center
Mon 01:51:57 PM 38.4042 -99.1517 249° West 429 494 25,600 823 Climbing Kansas City Center
Mon 01:52:59 PM 38.3606 -99.2958 249° West 435 501 26,500 871 Climbing Kansas City Center
Mon 01:54:01 PM 38.3156 -99.4397 248° West 438 504 27,400 919 Climbing Kansas City Center
Mon 01:55:03 PM 38.2661 -99.6033 249° West 438 504 28,400 871 Climbing Kansas City Center
Mon 01:56:05 PM 38.2236 -99.7419 249° West 438 504 29,200 871 Climbing Kansas City Center
Mon 01:57:07 PM 38.1744 -99.9028 249° West 438 504 30,200 871 Climbing Kansas City Center
Mon 01:58:09 PM 38.1281 -100.0386 247° West 438 504 31,000 857 Climbing Kansas City Center
Mon 01:59:13 PM 38.0811 -100.1994 250° West 435 501 32,000 952 Climbing Kansas City Center
Mon 02:00:15 PM 38.0303 -100.3586 248° West 437 503 33,000 823 Climbing Kansas City Center
Mon 02:01:17 PM 37.9875 -100.4931 248° West 434 499 33,700 484 Climbing Kansas City Center
Mon 02:02:19 PM 37.9378 -100.6528 249° West 435 501 34,000 194 Climbing Kansas City Center
Mon 02:03:21 PM 37.8933 -100.7928 248° West 446 513 34,100 484 Climbing Kansas City Center
Mon 02:04:23 PM 37.8425 -100.9569 249° West 453 521 35,000 677 Climbing Kansas City Center
Mon 02:05:25 PM 37.7953 -101.0933 246° West 452 520 35,500 629 Climbing Kansas City Center
Mon 02:06:27 PM 37.7433 -101.2517 248° West 443 510 36,300 677 Climbing Kansas City Center
Mon 02:07:29 PM 37.6986 -101.3881 248° West 442 509 36,900 336 Climbing Kansas City Center
Mon 02:08:32 PM 37.6464 -101.5469 247° West 440 506 37,000 240 Climbing Kansas City Center
Mon 02:09:34 PM 37.6019 -101.6847 248° West 443 510 37,400 435 Climbing Kansas City Center
Mon 02:10:36 PM 37.5489 -101.8442 247° West 443 510 37,900 290 Climbing Kansas City Center
Mon 02:11:38 PM 37.5033 -101.9811 247° West 443 510 38,000 48 Climbing Kansas City Center
Mon 02:12:40 PM 37.4494 -102.1431 247° West 447 514 38,000  Level Kansas City Center
Mon 02:13:42 PM 37.4031 -102.2817 247° West 450 518 38,000  Level Kansas City Center
Mon 02:14:44 PM 37.3469 -102.4442 247° West 453 521 38,000  Level Kansas City Center
Mon 02:15:46 PM 37.3003 -102.5814 247° West 449 517 38,000  Level Kansas City Center
Mon 02:16:48 PM 37.2458 -102.7428 247° West 449 517 38,000  Level Kansas City Center
Mon 02:17:50 PM 37.1986 -102.8789 246° West 447 514 38,000  Level Kansas City Center
Mon 02:18:52 PM 37.1514 -103.0161 247° West 447 514 38,000  Level Kansas City Center
Mon 02:20:14 PM 37.0789 -103.2283 247° West 446 513 38,000  Level Albuquerque Center
Mon 02:21:15 PM 37.0314 -103.3644 246° West 445 512 38,000  Level Albuquerque Center
Mon 02:22:17 PM 36.9831 -103.5022 246° West 448 516 38,000  Level Albuquerque Center
Mon 02:23:19 PM 36.9267 -103.6617 246° West 448 516 38,000  Level Albuquerque Center
Mon 02:24:21 PM 36.8778 -103.7992 246° West 449 517 38,000  Level Albuquerque Center
Mon 02:25:23 PM 36.8228 -103.9592 247° West 448 516 38,000  Level Albuquerque Center
Mon 02:26:24 PM 36.7725 -104.0950 245° Southwest 449 517 38,000  Level Albuquerque Center
Mon 02:27:26 PM 36.7167 -104.2542 246° West 448 516 38,000  Level Albuquerque Center
Mon 02:28:28 PM 36.6644 -104.3972 246° West 448 516 38,000  Level Albuquerque Center
Mon 02:29:30 PM 36.6128 -104.5386 246° West 447 514 38,000  Level Albuquerque Center
Mon 02:30:31 PM 36.5614 -104.6803 246° West 447 514 38,000  Level Albuquerque Center
Mon 02:31:33 PM 36.5308 -104.8286 256° West 442 509 38,000  Level Albuquerque Center
Mon 02:32:35 PM 36.5233 -104.9822 267° West 441 507 38,000  Level Albuquerque Center
Mon 02:33:37 PM 36.5231 -105.1342 270° West 438 504 38,000  Level Albuquerque Center
Mon 02:34:39 PM 36.5172 -105.3100 268° West 440 506 38,000  Level Albuquerque Center
Mon 02:35:40 PM 36.4839 -105.4519 254° West 448 516 38,000  Level Albuquerque Center
Mon 02:36:42 PM 36.4500 -105.5911 253° West 446 513 38,000  Level Albuquerque Center
Mon 02:37:44 PM 36.4181 -105.7400 255° West 447 514 38,000  Level Albuquerque Center
Mon 02:38:46 PM 36.3850 -105.8878 255° West 445 512 38,000  Level Albuquerque Center
Mon 02:39:47 PM 36.3456 -106.0650 255° West 444 511 38,000  Level Albuquerque Center
Mon 02:40:49 PM 36.3119 -106.2200 255° West 446 513 38,000  Level Albuquerque Center
Mon 02:41:51 PM 36.2783 -106.3608 254° West 445 512 38,000  Level Albuquerque Center
Mon 02:42:53 PM 36.2428 -106.5258 255° West 444 511 38,000  Level Albuquerque Center
Mon 02:43:54 PM 36.2092 -106.6669 254° West 445 512 38,000  Level Albuquerque Center
Mon 02:44:56 PM 36.1775 -106.8000 254° West 445 512 38,000  Level Albuquerque Center
Mon 02:45:58 PM 36.1453 -106.9458 255° West 443 510 38,000  Level Albuquerque Center
Mon 02:47:00 PM 36.1042 -107.1200 254° West 442 509 38,000  Level Albuquerque Center
Mon 02:48:01 PM 36.0678 -107.2719 254° West 439 505 38,000  Level Albuquerque Center
Mon 02:49:03 PM 36.0358 -107.4119 254° West 440 506 38,000  Level Albuquerque Center
Mon 02:50:05 PM 35.9961 -107.5725 253° West 439 505 38,000  Level Albuquerque Center
Mon 02:51:07 PM 35.9636 -107.7108 254° West 438 504 38,000  Level Albuquerque Center
Mon 02:52:08 PM 35.9294 -107.8483 253° West 438 504 38,000  Level Albuquerque Center
Mon 02:53:10 PM 35.8919 -108.0089 254° West 437 503 38,000  Level Albuquerque Center
Mon 02:54:12 PM 35.8567 -108.1478 253° West 439 505 38,000  Level Albuquerque Center
Mon 02:55:14 PM 35.8169 -108.3089 253° West 439 505 38,000  Level Albuquerque Center
Mon 02:56:15 PM 35.7836 -108.4456 253° West 435 501 38,000  Level Albuquerque Center
Mon 02:57:17 PM 35.7481 -108.5825 252° West 436 502 38,000  Level Albuquerque Center
Mon 02:58:19 PM 35.7086 -108.7439 253° West 436 502 38,000  Level Albuquerque Center
Mon 02:59:21 PM 35.6736 -108.8811 253° West 435 501 38,000  Level Albuquerque Center
Mon 03:00:22 PM 35.6328 -109.0419 253° West 438 504 38,000  Level Albuquerque Center
Mon 03:01:24 PM 35.5994 -109.1786 253° West 436 502 38,000  Level Albuquerque Center
Mon 03:02:26 PM 35.5642 -109.3133 252° West 434 499 38,000  Level Albuquerque Center
Mon 03:03:28 PM 35.5244 -109.4742 253° West 437 503 38,000  Level Albuquerque Center
Mon 03:04:30 PM 35.4886 -109.6108 252° West 439 505 38,000  Level Albuquerque Center
Mon 03:05:31 PM 35.4469 -109.7689 252° West 437 503 38,000  Level Albuquerque Center
Mon 03:06:33 PM 35.4119 -109.9042 252° West 436 502 38,000  Level Albuquerque Center
Mon 03:07:35 PM 35.3686 -110.0625 251° West 437 503 38,000  Level Albuquerque Center
Mon 03:08:36 PM 35.3317 -110.1972 251° West 437 503 38,000  Level Albuquerque Center
Mon 03:09:38 PM 35.2972 -110.3342 253° West 439 505 38,000  Level Albuquerque Center
Mon 03:10:40 PM 35.2539 -110.4911 251° West 437 503 38,000  Level Albuquerque Center
Mon 03:11:42 PM 35.2156 -110.6267 251° West 439 505 38,000  Level Albuquerque Center
Mon 03:12:44 PM 35.1739 -110.7856 252° West 439 505 38,000  Level Albuquerque Center
Mon 03:13:45 PM 35.1358 -110.9206 251° West 441 507 38,000  Level Albuquerque Center
Mon 03:14:47 PM 35.0931 -111.0806 252° West 442 509 38,000  Level Albuquerque Center
Mon 03:15:49 PM 35.0572 -111.2164 252° West 452 520 38,000  Level Albuquerque Center
Mon 03:16:51 PM 35.0181 -111.3583 251° West 447 514 38,000  Level Albuquerque Center
Mon 03:17:52 PM 34.9794 -111.4989 252° West 442 509 38,000  Level Albuquerque Center
Mon 03:18:54 PM 34.9306 -111.6681 251° West 442 509 38,000  Level Albuquerque Center
Mon 03:19:56 PM 34.8969 -111.7944 252° West 444 511 38,000  Level Albuquerque Center
Mon 03:20:58 PM 34.8569 -111.9350 251° West 442 509 38,000  Level Albuquerque Center
Mon 03:21:59 PM 34.8089 -112.1047 251° West 442 509 38,000  Level Albuquerque Center
Mon 03:23:01 PM 34.7686 -112.2453 251° West 443 510 38,000  Level Albuquerque Center
Mon 03:24:03 PM 34.7272 -112.3861 250° West 443 510 38,000  Level Albuquerque Center
Mon 03:25:04 PM 34.6881 -112.5278 251° West 443 510 38,000  Level Albuquerque Center
Mon 03:26:06 PM 34.6517 -112.6706 253° West 443 510 38,000  Level Albuquerque Center
Mon 03:27:08 PM 34.6139 -112.8122 252° West 443 510 38,000  Level Albuquerque Center
Mon 03:28:10 PM 34.5750 -112.9536 252° West 443 510 38,000 -38 Level Albuquerque Center
Mon 03:29:46 PM 34.5139 -113.1822 252° West 447 514 37,900 -835 Descending Los Angeles Center
Mon 03:30:48 PM 34.4675 -113.3572 252° West 455 524 35,800 -1,968 Descending Los Angeles Center
Mon 03:31:51 PM 34.4294 -113.5022 252° West 456 525 33,800 -1,872 Descending Los Angeles Center
Mon 03:32:53 PM 34.3886 -113.6497 251° West 462 532 31,900 -1,839 Descending Los Angeles Center
Mon 03:33:55 PM 34.3469 -113.8103 253° West 461 531 30,000 -968 Descending Los Angeles Center
Mon 03:34:57 PM 34.3186 -113.9608 257° West 460 529 29,900 -48 Descending Los Angeles Center
Mon 03:35:59 PM 34.2847 -114.1103 255° West 461 531 29,900 -677 Level Los Angeles Center
Mon 03:37:01 PM 34.2511 -114.2592 255° West 461 531 28,500 -1,887 Descending Los Angeles Center
Mon 03:38:03 PM 34.2125 -114.4444 256° West 475 547 26,000 -2,371 Descending Los Angeles Center
Mon 03:39:05 PM 34.1775 -114.6000 255° West 482 555 23,600 -2,277 Descending Los Angeles Center
Mon 03:40:20 PM 34.1350 -114.7806 254° West 470 541 20,800 -1,577 Descending Los Angeles Center
Mon 03:41:22 PM 34.1031 -114.9328 256° West 471 542 20,000 -435 Descending Los Angeles Center
Mon 03:42:24 PM 34.0706 -115.0725 254° West 444 511 19,900 -629 Descending Los Angeles Center
Mon 03:43:26 PM 34.0314 -115.2400 254° West 434 499 18,700 -2,129 Descending Los Angeles Center
Mon 03:44:28 PM 34.0008 -115.3850 256° West 445 512 15,500 -2,832 Descending Los Angeles Center
Mon 03:45:31 PM 33.9708 -115.5133 254° West 412 474 12,800 -2,496 Descending Los Angeles Center
Mon 03:46:33 PM 33.9414 -115.6325 253° West 387 445 10,300 -1,403 Descending Los Angeles Center
Mon 03:47:35 PM 33.9153 -115.7450 254° West 369 425 9,900 -194 Descending Los Angeles Center
Mon 03:48:37 PM 33.9078 -115.8561 265° West 351 404 9,900 -194 Level Los Angeles Center
Mon 03:49:39 PM 33.8753 -115.9656 250° West 320 368 9,500 -1,065 Descending Los Angeles Center
Mon 03:50:41 PM 33.8117 -116.0181 214° Southwest 292 336 7,700 -1,258 Descending Los Angeles Center
Mon 03:51:43 PM 33.7494 -116.0650 212° Southwest 290 334 6,900 -774 Descending Los Angeles Center

Login

Don't have an account? Register now (free) for customized features, flight alerts, and more!